Time;durP1;ratioP1;P1;durP2;ratioP2;P2;SDS_P1;SDS_P2;PMS_P1;PMS_P2;Temp;Humidity;BMP_temperature;BMP_pressure;BME280_temperature;BME280_humidity;BME280_pressure;Samples;Min_cycle;Max_cycle;Signal;HPM_P1;HPM_P2
2022/04/11 00:00:52;;;;;;;13.48;4.85;;;;;;;;;;4958110;28;20047;-81
2022/04/11 00:03:19;;;;;;;9.80;4.70;;;;;;;;;;4975498;28;20086;-81
2022/04/11 00:05:47;;;;;;;8.82;4.65;;;;;;;;;;4956695;28;20054;-79
2022/04/11 00:08:13;;;;;;;7.90;4.45;;;;;;;;;;4973332;28;20114;-80
2022/04/11 00:10:39;;;;;;;8.95;5.13;;;;;;;;;;4957433;28;20553;-80
2022/04/11 00:13:06;;;;;;;10.07;5.13;;;;;;;;;;4975938;28;20587;-80
2022/04/11 00:15:38;;;;;;;11.32;5.22;;;;;;;;;;4958327;28;20051;-79
2022/04/11 00:18:04;;;;;;;9.50;5.10;;;;;;;;;;4974986;28;20051;-80
2022/04/11 00:20:31;;;;;;;9.23;5.07;;;;;;;;;;4974908;28;20086;-79
2022/04/11 00:22:57;;;;;;;9.20;4.80;;;;;;;;;;4958045;28;20114;-82
2022/04/11 00:25:24;;;;;;;9.40;5.07;;;;;;;;;;4973519;28;20083;-81
2022/04/11 00:27:52;;;;;;;8.63;4.95;;;;;;;;;;4957098;28;20130;-82
2022/04/11 00:30:18;;;;;;;8.27;5.20;;;;;;;;;;4957326;28;20066;-81
2022/04/11 00:32:45;;;;;;;9.45;5.30;;;;;;;;;;4958014;28;20055;-81
2022/04/11 00:35:12;;;;;;;9.15;5.20;;;;;;;;;;4974326;28;20083;-80
2022/04/11 00:37:38;;;;;;;11.82;5.60;;;;;;;;;;4957095;28;20084;-82
2022/04/11 00:40:05;;;;;;;8.27;5.32;;;;;;;;;;4974832;28;20051;-80
2022/04/11 00:42:32;;;;;;;10.85;5.43;;;;;;;;;;4950542;28;20130;-81
2022/04/11 00:45:03;;;;;;;9.80;5.20;;;;;;;;;;4957568;28;20069;-81
2022/04/11 00:47:30;;;;;;;9.23;4.93;;;;;;;;;;4955485;28;20102;-81
2022/04/11 00:50:01;;;;;;;11.23;5.43;;;;;;;;;;4973975;28;20145;-81
2022/04/11 00:52:27;;;;;;;;;;;;;;;;;;4974108;28;20126;-82
2022/04/11 00:54:53;;;;;;;9.57;4.80;;;;;;;;;;4971784;28;45155;-82
2022/04/11 00:57:20;;;;;;;8.70;4.90;;;;;;;;;;4957659;28;20098;-81
2022/04/11 00:59:46;;;;;;;7.97;4.45;;;;;;;;;;4956903;28;20079;-81
2022/04/11 01:02:13;;;;;;;9.00;4.82;;;;;;;;;;4958725;28;20062;-81
2022/04/11 01:04:41;;;;;;;6.88;4.22;;;;;;;;;;4972153;28;20789;-80
2022/04/11 01:07:13;;;;;;;8.93;4.53;;;;;;;;;;4941242;28;20055;-80
2022/04/11 01:09:40;;;;;;;8.13;4.22;;;;;;;;;;4953383;28;20177;-81
2022/04/11 01:12:06;;;;;;;9.43;4.72;;;;;;;;;;4973738;28;20093;-82
2022/04/11 01:14:33;;;;;;;8.25;4.78;;;;;;;;;;4973674;28;20143;-81
2022/04/11 01:16:59;;;;;;;9.15;4.70;;;;;;;;;;4973850;28;20051;-80
2022/04/11 01:19:26;;;;;;;11.57;5.03;;;;;;;;;;4973024;28;20094;-80
2022/04/11 01:21:52;;;;;;;8.25;4.80;;;;;;;;;;4973158;28;20083;-81
2022/04/11 01:24:20;;;;;;;8.30;4.88;;;;;;;;;;4970879;28;20055;-82
2022/04/11 01:26:47;;;;;;;9.13;5.00;;;;;;;;;;4955845;28;20130;-81
2022/04/11 01:29:15;;;;;;;8.60;4.80;;;;;;;;;;4955787;28;20069;-82
2022/04/11 01:31:41;;;;;;;10.25;5.57;;;;;;;;;;4972718;28;20043;-80
2022/04/11 01:34:08;;;;;;;10.25;5.20;;;;;;;;;;4954618;28;20467;-81
2022/04/11 01:36:34;;;;;;;9.38;4.53;;;;;;;;;;4963404;28;20079;-79
2022/04/11 01:39:00;;;;;;;8.63;4.32;;;;;;;;;;4963335;28;20047;-80
2022/04/11 01:41:28;;;;;;;10.25;4.40;;;;;;;;;;4961772;28;20118;-80
2022/04/11 01:43:54;;;;;;;8.75;4.40;;;;;;;;;;4955132;28;20111;-80
2022/04/11 01:46:20;;;;;;;9.82;4.47;;;;;;;;;;4959049;28;20094;-80
2022/04/11 01:48:47;;;;;;;7.15;4.20;;;;;;;;;;4968945;28;20589;-79
2022/04/11 01:51:14;;;;;;;8.95;4.45;;;;;;;;;;4952051;28;20146;-80
2022/04/11 01:53:40;;;;;;;7.47;4.55;;;;;;;;;;4968270;28;20059;-80
2022/04/11 01:56:07;;;;;;;7.22;4.10;;;;;;;;;;4951709;28;20146;-80
2022/04/11 01:58:33;;;;;;;8.85;4.93;;;;;;;;;;4949843;28;20098;-80
2022/04/11 02:00:59;;;;;;;11.18;5.60;;;;;;;;;;4958926;28;20178;-80
2022/04/11 02:03:27;;;;;;;10.32;6.05;;;;;;;;;;4952144;28;20058;-81
2022/04/11 02:05:54;;;;;;;8.80;5.63;;;;;;;;;;4967228;28;20087;-79
2022/04/11 02:08:20;;;;;;;9.35;5.75;;;;;;;;;;4969248;28;20115;-79
2022/04/11 02:10:46;;;;;;;10.93;4.80;;;;;;;;;;4969427;28;20237;-80
2022/04/11 02:13:13;;;;;;;8.93;3.78;;;;;;;;;;4951083;28;20510;-79
2022/04/11 02:15:39;;;;;;;8.23;3.70;;;;;;;;;;4965083;28;20082;-80
2022/04/11 02:18:06;;;;;;;8.13;4.28;;;;;;;;;;4969426;28;20500;-81
2022/04/11 02:20:32;;;;;;;6.18;3.72;;;;;;;;;;4969409;28;20496;-80
2022/04/11 02:22:59;;;;;;;8.82;3.75;;;;;;;;;;4951313;28;20138;-79
2022/04/11 02:25:26;;;;;;;9.35;3.90;;;;;;;;;;4968328;28;20089;-80
2022/04/11 02:27:59;;;;;;;6.57;3.40;;;;;;;;;;4951872;28;20101;-79
2022/04/11 02:30:27;;;;;;;8.95;4.07;;;;;;;;;;4951294;28;20059;-79
2022/04/11 02:32:55;;;;;;;8.98;4.13;;;;;;;;;;4968202;28;20110;-80
2022/04/11 02:35:21;;;;;;;7.00;4.07;;;;;;;;;;4951752;28;20075;-80
2022/04/11 02:37:47;;;;;;;7.97;4.13;;;;;;;;;;4969286;28;20075;-80
2022/04/11 02:40:14;;;;;;;7.40;4.47;;;;;;;;;;4951155;28;20506;-79
2022/04/11 02:42:42;;;;;;;9.93;4.80;;;;;;;;;;4941687;28;20159;-80
2022/04/11 02:45:12;;;;;;;8.00;4.57;;;;;;;;;;4963141;28;20149;-82
2022/04/11 02:47:39;;;;;;;11.02;4.72;;;;;;;;;;4969219;28;20074;-79
2022/04/11 02:50:05;;;;;;;10.23;5.00;;;;;;;;;;4972354;28;20083;-81
2022/04/11 02:52:32;;;;;;;11.95;5.30;;;;;;;;;;4971197;28;20158;-79
2022/04/11 02:54:59;;;;;;;9.15;5.35;;;;;;;;;;4968171;28;20047;-79
2022/04/11 02:57:25;;;;;;;7.82;4.20;;;;;;;;;;4970388;28;20925;-79
2022/04/11 02:59:52;;;;;;;11.35;5.35;;;;;;;;;;4949186;28;20091;-79
2022/04/11 03:02:18;;;;;;;8.35;4.85;;;;;;;;;;4972084;28;20095;-79
2022/04/11 03:04:45;;;;;;;10.15;4.75;;;;;;;;;;4954530;28;20051;-79
2022/04/11 03:07:12;;;;;;;21.08;5.18;;;;;;;;;;4970875;28;20821;-79
2022/04/11 03:09:38;;;;;;;10.15;5.13;;;;;;;;;;4971780;28;20586;-80
2022/04/11 03:12:05;;;;;;;10.45;4.93;;;;;;;;;;4953552;28;20094;-80
2022/04/11 03:14:31;;;;;;;10.48;5.25;;;;;;;;;;4954060;28;20102;-79
2022/04/11 03:16:58;;;;;;;10.55;4.80;;;;;;;;;;4954487;28;20055;-79
2022/04/11 03:19:25;;;;;;;10.85;5.10;;;;;;;;;;4971547;28;20514;-82
2022/04/11 03:21:51;;;;;;;10.02;4.68;;;;;;;;;;4971670;28;20094;-80
2022/04/11 03:24:17;;;;;;;10.43;5.40;;;;;;;;;;4970983;28;20936;-80
2022/04/11 03:26:44;;;;;;;10.82;5.70;;;;;;;;;;4966428;28;20083;-79
2022/04/11 03:29:10;;;;;;;10.18;5.28;;;;;;;;;;4966086;28;20083;-79
2022/04/11 03:31:40;;;;;;;8.98;5.70;;;;;;;;;;4970399;28;20087;-80
2022/04/11 03:34:06;;;;;;;8.82;5.32;;;;;;;;;;4954115;28;20051;-79
2022/04/11 03:36:32;;;;;;;9.50;5.30;;;;;;;;;;4953951;28;20051;-80
2022/04/11 03:38:59;;;;;;;10.45;5.80;;;;;;;;;;4971542;28;20086;-79
2022/04/11 03:41:25;;;;;;;12.68;5.57;;;;;;;;;;4953746;28;20059;-80
2022/04/11 03:43:51;;;;;;;9.25;5.20;;;;;;;;;;4969475;28;20489;-80
2022/04/11 03:46:18;;;;;;;11.70;5.55;;;;;;;;;;4953754;28;20572;-81
2022/04/11 03:48:44;;;;;;;10.15;5.78;;;;;;;;;;4953941;28;20978;-81
2022/04/11 03:51:11;;;;;;;11.55;5.90;;;;;;;;;;4953382;28;20990;-80
2022/04/11 03:53:37;;;;;;;10.30;6.05;;;;;;;;;;4953829;28;20079;-79
2022/04/11 03:56:04;;;;;;;8.00;5.13;;;;;;;;;;4953776;28;20051;-79
2022/04/11 03:58:31;;;;;;;12.10;5.75;;;;;;;;;;4953212;28;20087;-79
2022/04/11 04:00:59;;;;;;;9.32;5.50;;;;;;;;;;4954528;28;20059;-81
2022/04/11 04:03:27;;;;;;;9.38;5.28;;;;;;;;;;4952396;28;20061;-79
2022/04/11 04:05:53;;;;;;;12.32;6.00;;;;;;;;;;4973093;28;20158;-80
2022/04/11 04:08:19;;;;;;;12.27;4.80;;;;;;;;;;4970265;28;20146;-80
2022/04/11 04:10:46;;;;;;;12.02;5.47;;;;;;;;;;4953914;28;20130;-80
2022/04/11 04:13:12;;;;;;;10.75;5.60;;;;;;;;;;4970938;28;20056;-79
2022/04/11 04:15:39;;;;;;;11.77;5.65;;;;;;;;;;4952034;28;20054;-80
2022/04/11 04:18:05;;;;;;;10.13;5.60;;;;;;;;;;4968666;28;20055;-79
2022/04/11 04:20:32;;;;;;;13.85;5.90;;;;;;;;;;4953442;28;20078;-80
2022/04/11 04:22:58;;;;;;;9.70;5.80;;;;;;;;;;4953800;28;20513;-80
2022/04/11 04:25:27;;;;;;;10.70;6.00;;;;;;;;;;4953273;28;20055;-79
2022/04/11 04:27:53;;;;;;;12.85;6.80;;;;;;;;;;4953919;28;20656;-81
2022/04/11 04:30:20;;;;;;;13.98;6.45;;;;;;;;;;4969032;28;20091;-80
2022/04/11 04:32:47;;;;;;;14.02;7.10;;;;;;;;;;4953634;28;20138;-81
2022/04/11 04:35:14;;;;;;;12.90;7.05;;;;;;;;;;4952810;28;20449;-80
2022/04/11 04:37:40;;;;;;;11.38;6.70;;;;;;;;;;4952570;28;20051;-81
2022/04/11 04:40:07;;;;;;;14.65;7.25;;;;;;;;;;4970996;28;20055;-81
2022/04/11 04:42:36;;;;;;;15.55;6.88;;;;;;;;;;4970120;28;20097;-81
2022/04/11 04:45:04;;;;;;;16.08;7.28;;;;;;;;;;4953081;28;20503;-81
2022/04/11 04:47:30;;;;;;;14.52;6.88;;;;;;;;;;4967977;28;20051;-80
2022/04/11 04:49:57;;;;;;;12.80;7.60;;;;;;;;;;4969295;28;20055;-81
2022/04/11 04:52:23;;;;;;;11.25;6.82;;;;;;;;;;4955723;28;20102;-82
2022/04/11 04:54:49;;;;;;;13.60;7.10;;;;;;;;;;4954862;28;20087;-84
2022/04/11 04:57:16;;;;;;;12.95;6.82;;;;;;;;;;4971727;28;20142;-82
2022/04/11 04:59:43;;;;;;;12.20;6.90;;;;;;;;;;4958635;28;20094;-82
2022/04/11 05:02:12;;;;;;;14.73;7.05;;;;;;;;;;4955309;28;20550;-81
2022/04/11 05:04:39;;;;;;;11.82;6.82;;;;;;;;;;4955876;28;20055;-82
2022/04/11 05:07:05;;;;;;;11.27;6.85;;;;;;;;;;4954722;28;20095;-79
2022/04/11 05:09:32;;;;;;;13.07;7.00;;;;;;;;;;4955143;28;20142;-80
2022/04/11 05:11:58;;;;;;;17.05;8.00;;;;;;;;;;4971409;28;20082;-81
2022/04/11 05:14:25;;;;;;;13.25;7.22;;;;;;;;;;4970800;28;20078;-81
2022/04/11 05:16:52;;;;;;;13.57;7.38;;;;;;;;;;4953091;28;20055;-80
2022/04/11 05:19:18;;;;;;;11.15;7.20;;;;;;;;;;4954971;28;20082;-81
2022/04/11 05:21:44;;;;;;;13.40;7.38;;;;;;;;;;4956947;28;20075;-81
2022/04/11 05:24:11;;;;;;;12.10;7.63;;;;;;;;;;4954831;28;20078;-81
2022/04/11 05:26:37;;;;;;;13.30;7.68;;;;;;;;;;4955667;28;20154;-82
2022/04/11 05:29:04;;;;;;;12.40;7.53;;;;;;;;;;4954796;28;20849;-81
2022/04/11 05:31:30;;;;;;;14.80;8.10;;;;;;;;;;4971803;28;20098;-80
2022/04/11 05:33:57;;;;;;;12.82;7.53;;;;;;;;;;4954324;28;20056;-80
2022/04/11 05:36:23;;;;;;;13.65;7.80;;;;;;;;;;4974403;28;20589;-81
2022/04/11 05:38:49;;;;;;;12.80;7.47;;;;;;;;;;4968643;28;20150;-82
2022/04/11 05:41:18;;;;;;;14.15;7.28;;;;;;;;;;4956931;28;20625;-80
2022/04/11 05:43:45;;;;;;;14.50;8.18;;;;;;;;;;4947067;28;20178;-81
2022/04/11 05:46:11;;;;;;;11.43;7.30;;;;;;;;;;4970757;28;20082;-81
2022/04/11 05:48:38;;;;;;;13.82;7.43;;;;;;;;;;4952813;28;20138;-81
2022/04/11 05:51:04;;;;;;;17.92;7.38;;;;;;;;;;4954532;28;20055;-81
2022/04/11 05:53:31;;;;;;;12.15;7.30;;;;;;;;;;4954725;28;20146;-81
2022/04/11 05:55:57;;;;;;;15.05;8.20;;;;;;;;;;4953433;28;20119;-80
2022/04/11 05:58:24;;;;;;;14.10;7.45;;;;;;;;;;4954025;28;20052;-82
2022/04/11 06:00:54;;;;;;;14.30;7.53;;;;;;;;;;4970378;28;21333;-81
2022/04/11 06:03:20;;;;;;;14.85;7.38;;;;;;;;;;4971917;28;20150;-80
2022/04/11 06:05:46;;;;;;;12.68;7.15;;;;;;;;;;4976213;28;20055;-83
2022/04/11 06:08:13;;;;;;;14.00;6.90;;;;;;;;;;4959743;28;20142;-82
2022/04/11 06:10:40;;;;;;;12.15;7.20;;;;;;;;;;4957590;28;20130;-82
2022/04/11 06:13:06;;;;;;;13.80;7.10;;;;;;;;;;4954104;28;20059;-80
2022/04/11 06:15:33;;;;;;;13.70;7.60;;;;;;;;;;4973945;28;20075;-81
2022/04/11 06:17:59;;;;;;;14.75;8.07;;;;;;;;;;4958487;28;20055;-83
2022/04/11 06:20:26;;;;;;;15.05;7.85;;;;;;;;;;4960379;28;20058;-83
2022/04/11 06:22:52;;;;;;;13.88;7.40;;;;;;;;;;4976389;28;20091;-81
2022/04/11 06:25:18;;;;;;;13.52;7.50;;;;;;;;;;4964900;28;20087;-81
2022/04/11 06:27:45;;;;;;;14.25;7.10;;;;;;;;;;4975373;28;20353;-83
2022/04/11 06:30:11;;;;;;;14.18;7.20;;;;;;;;;;4976066;28;20051;-80
2022/04/11 06:32:38;;;;;;;15.07;7.38;;;;;;;;;;4976605;28;20077;-81
2022/04/11 06:35:04;;;;;;;13.98;8.07;;;;;;;;;;4956479;28;20052;-81
2022/04/11 06:37:30;;;;;;;17.98;7.18;;;;;;;;;;4955601;28;20070;-81
2022/04/11 06:39:58;;;;;;;14.05;8.02;;;;;;;;;;4970243;28;20056;-80
2022/04/11 06:42:24;;;;;;;13.32;7.60;;;;;;;;;;4952251;28;20920;-80
2022/04/11 06:44:50;;;;;;;16.88;7.93;;;;;;;;;;4974137;28;20060;-80
2022/04/11 06:47:18;;;;;;;12.68;7.72;;;;;;;;;;4954579;28;20142;-80
2022/04/11 06:49:45;;;;;;;14.45;8.43;;;;;;;;;;4968288;28;20079;-79
2022/04/11 06:52:11;;;;;;;15.98;8.35;;;;;;;;;;4963709;28;20054;-79
2022/04/11 06:54:37;;;;;;;14.52;8.27;;;;;;;;;;4961353;28;20110;-80
2022/04/11 06:57:04;;;;;;;15.70;7.70;;;;;;;;;;4969295;28;20150;-80
2022/04/11 06:59:30;;;;;;;16.95;7.93;;;;;;;;;;4973706;28;20097;-79
2022/04/11 07:01:56;;;;;;;17.60;8.32;;;;;;;;;;4952975;28;20126;-80
2022/04/11 07:04:23;;;;;;;13.30;7.78;;;;;;;;;;4970800;28;20063;-79
2022/04/11 07:06:50;;;;;;;13.10;7.50;;;;;;;;;;4970680;28;20059;-79
2022/04/11 07:09:16;;;;;;;18.45;8.35;;;;;;;;;;4953461;28;20138;-80
2022/04/11 07:11:42;;;;;;;12.57;7.80;;;;;;;;;;4952958;28;20142;-79
2022/04/11 07:14:09;;;;;;;17.83;7.70;;;;;;;;;;4952373;28;20086;-80
2022/04/11 07:16:36;;;;;;;12.77;8.07;;;;;;;;;;4954116;28;20620;-79
2022/04/11 07:19:03;;;;;;;12.65;7.80;;;;;;;;;;4966199;28;20084;-80
2022/04/11 07:21:29;;;;;;;11.90;7.82;;;;;;;;;;4950555;28;20083;-79
2022/04/11 07:23:55;;;;;;;12.07;7.65;;;;;;;;;;4971342;28;20083;-79
2022/04/11 07:26:22;;;;;;;13.27;7.05;;;;;;;;;;4953827;28;20519;-80
2022/04/11 07:28:48;;;;;;;13.88;8.13;;;;;;;;;;4971462;28;20073;-80
2022/04/11 07:31:15;;;;;;;15.10;8.02;;;;;;;;;;4961793;28;20056;-79
2022/04/11 07:33:41;;;;;;;14.63;8.13;;;;;;;;;;4963213;28;20577;-79
2022/04/11 07:36:08;;;;;;;14.32;8.00;;;;;;;;;;4972542;28;20595;-79
2022/04/11 07:38:34;;;;;;;15.75;7.63;;;;;;;;;;4973085;28;20055;-79
2022/04/11 07:41:01;;;;;;;12.57;8.00;;;;;;;;;;4973835;28;20090;-79
2022/04/11 07:43:27;;;;;;;11.00;7.53;;;;;;;;;;4941283;28;20060;-79
2022/04/11 07:45:53;;;;;;;14.18;7.57;;;;;;;;;;4967531;28;20142;-79
2022/04/11 07:48:21;;;;;;;16.08;7.82;;;;;;;;;;4955842;28;20051;-80
2022/04/11 07:50:47;;;;;;;9.50;6.85;;;;;;;;;;4954919;28;20055;-79
2022/04/11 07:53:13;;;;;;;12.88;7.50;;;;;;;;;;4972058;28;20051;-79
2022/04/11 07:55:40;;;;;;;16.02;7.70;;;;;;;;;;4956400;28;20083;-79
2022/04/11 07:58:06;;;;;;;12.15;7.15;;;;;;;;;;4956173;28;20055;-80
2022/04/11 08:00:32;;;;;;;17.88;7.75;;;;;;;;;;4973316;28;20082;-79
2022/04/11 08:03:01;;;;;;;12.95;6.82;;;;;;;;;;4955407;28;20063;-79
2022/04/11 08:05:28;;;;;;;12.13;7.30;;;;;;;;;;4968289;28;20052;-80
2022/04/11 08:07:54;;;;;;;10.60;6.55;;;;;;;;;;4967822;28;20143;-79
2022/04/11 08:10:23;;;;;;;9.60;6.15;;;;;;;;;;4970771;28;20067;-79
2022/04/11 08:12:51;;;;;;;14.15;7.18;;;;;;;;;;4958173;28;20095;-79
2022/04/11 08:15:17;;;;;;;11.52;6.40;;;;;;;;;;4955767;28;20103;-79
2022/04/11 08:17:43;;;;;;;10.07;6.07;;;;;;;;;;4973962;28;20099;-80
2022/04/11 08:20:10;;;;;;;12.35;6.25;;;;;;;;;;4955889;28;20087;-80
2022/04/11 08:22:43;;;;;;;14.25;5.97;;;;;;;;;;4956538;28;20059;-80
2022/04/11 08:25:19;;;;;;;15.98;6.32;;;;;;;;;;4973281;28;20098;-80
2022/04/11 08:27:46;;;;;;;9.93;6.60;;;;;;;;;;4955914;28;20095;-80
2022/04/11 08:30:13;;;;;;;14.70;7.05;;;;;;;;;;4956300;28;20138;-81
2022/04/11 08:32:40;;;;;;;9.63;6.60;;;;;;;;;;4955884;28;20910;-79
2022/04/11 08:35:08;;;;;;;11.00;7.18;;;;;;;;;;4979852;28;20086;-80
2022/04/11 08:37:37;;;;;;;14.35;7.32;;;;;;;;;;4951395;28;20055;-80
2022/04/11 08:40:04;;;;;;;11.38;6.45;;;;;;;;;;4951054;28;20075;-80
2022/04/11 08:42:31;;;;;;;10.68;6.85;;;;;;;;;;4946822;28;20063;-80
2022/04/11 08:44:58;;;;;;;12.63;6.70;;;;;;;;;;4968573;28;20072;-80
2022/04/11 08:47:24;;;;;;;10.25;5.97;;;;;;;;;;4956308;28;20075;-79
2022/04/11 08:49:52;;;;;;;12.05;6.60;;;;;;;;;;4954704;28;20063;-80
2022/04/11 08:52:20;;;;;;;12.15;6.45;;;;;;;;;;4953857;28;20071;-80
2022/04/11 08:54:46;;;;;;;11.85;5.53;;;;;;;;;;4954896;28;20106;-81
2022/04/11 08:57:12;;;;;;;10.48;6.63;;;;;;;;;;4955370;28;20055;-79
2022/04/11 08:59:39;;;;;;;12.68;6.30;;;;;;;;;;4970255;28;20601;-80
2022/04/11 09:02:09;;;;;;;10.27;5.47;;;;;;;;;;4969621;28;20146;-79
2022/04/11 09:04:50;;;;;;;8.30;5.85;;;;;;;;;;4960381;28;20058;-81
2022/04/11 09:07:16;;;;;;;13.98;8.48;;;;;;;;;;4956336;28;20051;-80
2022/04/11 09:09:43;;;;;;;10.82;6.43;;;;;;;;;;4973631;28;20055;-80
2022/04/11 09:12:12;;;;;;;9.02;5.75;;;;;;;;;;4971736;28;20078;-79
2022/04/11 09:14:38;;;;;;;9.25;4.00;;;;;;;;;;4970021;28;20134;-79
2022/04/11 09:17:05;;;;;;;10.25;4.93;;;;;;;;;;4954424;28;20593;-80
2022/04/11 09:19:32;;;;;;;6.57;3.60;;;;;;;;;;4972292;28;20051;-80
2022/04/11 09:22:28;;;;;;;7.93;4.47;;;;;;;;;;4954458;28;20059;-76
2022/04/11 09:25:08;;;;;;;8.98;4.30;;;;;;;;;;4969440;28;20592;-78
2022/04/11 09:27:34;;;;;;;10.18;4.32;;;;;;;;;;4953332;28;20534;-78
2022/04/11 09:30:01;;;;;;;9.20;3.95;;;;;;;;;;4954515;28;20098;-78
2022/04/11 09:32:27;;;;;;;18.60;10.88;;;;;;;;;;4955165;28;20059;-78
2022/04/11 09:34:54;;;;;;;8.43;4.55;;;;;;;;;;4970166;28;20491;-77
2022/04/11 09:37:23;;;;;;;9.45;4.32;;;;;;;;;;4954069;28;20082;-78
2022/04/11 09:39:59;;;;;;;12.40;5.00;;;;;;;;;;4936838;28;20087;-78
2022/04/11 09:42:29;;;;;;;11.63;4.70;;;;;;;;;;4968750;28;20065;-77
2022/04/11 09:44:59;;;;;;;10.82;4.30;;;;;;;;;;4961595;28;20087;-77
2022/04/11 09:47:59;;;;;;;8.50;4.70;;;;;;;;;;4947834;28;20062;-77
2022/04/11 09:50:30;;;;;;;10.70;4.70;;;;;;;;;;4943871;28;20980;-79
2022/04/11 09:52:57;;;;;;;;;;;;;;;;;;4969644;28;20114;-79
2022/04/11 09:55:23;;;;;;;8.85;4.65;;;;;;;;;;4952147;28;42091;-78
2022/04/11 09:57:50;;;;;;;10.95;4.70;;;;;;;;;;4952756;28;20129;-78
2022/04/11 10:00:16;;;;;;;7.85;4.80;;;;;;;;;;4970442;28;20092;-80
2022/04/11 10:02:44;;;;;;;9.73;4.60;;;;;;;;;;4952920;28;20932;-80
2022/04/11 10:05:11;;;;;;;9.65;5.25;;;;;;;;;;4966327;28;20490;-80
2022/04/11 10:07:37;;;;;;;8.48;4.85;;;;;;;;;;4956629;28;20457;-80
2022/04/11 10:10:08;;;;;;;9.48;5.82;;;;;;;;;;4971377;28;20122;-80
2022/04/11 10:12:35;;;;;;;9.63;5.30;;;;;;;;;;4970135;28;20082;-80
2022/04/11 10:15:01;;;;;;;11.82;5.50;;;;;;;;;;4958783;28;20142;-80
2022/04/11 10:17:29;;;;;;;9.40;4.90;;;;;;;;;;4975164;28;20059;-81
2022/04/11 10:19:55;;;;;;;8.88;4.47;;;;;;;;;;4973483;28;20056;-80
2022/04/11 10:22:26;;;;;;;8.02;4.90;;;;;;;;;;4967416;28;20051;-80
2022/04/11 10:25:04;;;;;;;10.50;4.97;;;;;;;;;;4952197;28;20866;-81
2022/04/11 10:27:32;;;;;;;9.30;4.45;;;;;;;;;;4960779;28;20052;-81
2022/04/11 10:29:59;;;;;;;9.25;4.63;;;;;;;;;;4969568;28;20087;-82
2022/04/11 10:32:26;;;;;;;8.48;4.35;;;;;;;;;;4978287;28;20113;-81
2022/04/11 10:34:54;;;;;;;9.75;4.93;;;;;;;;;;4952772;28;20070;-81
2022/04/11 10:37:21;;;;;;;7.40;4.47;;;;;;;;;;4952947;28;20178;-81
2022/04/11 10:39:48;;;;;;;11.57;5.10;;;;;;;;;;4949311;28;20103;-81
2022/04/11 10:42:16;;;;;;;6.20;3.90;;;;;;;;;;4968697;28;20055;-81
2022/04/11 10:44:43;;;;;;;8.45;4.05;;;;;;;;;;4951069;28;20081;-81
2022/04/11 10:47:10;;;;;;;6.82;4.10;;;;;;;;;;4952804;28;20060;-81
2022/04/11 10:49:48;;;;;;;11.07;4.07;;;;;;;;;;4953039;28;20059;-81
2022/04/11 10:52:28;;;;;;;7.53;3.88;;;;;;;;;;4969025;28;20110;-81
2022/04/11 10:54:55;;;;;;;7.45;3.58;;;;;;;;;;4962402;28;20894;-82
2022/04/11 10:57:31;;;;;;;7.82;3.90;;;;;;;;;;4949650;28;20986;-81
2022/04/11 11:00:04;;;;;;;7.68;3.90;;;;;;;;;;4966773;28;20536;-81
2022/04/11 11:02:49;;;;;;;6.10;3.78;;;;;;;;;;4965262;28;20548;-81
2022/04/11 11:05:24;;;;;;;6.80;3.80;;;;;;;;;;4968106;28;20106;-81
2022/04/11 11:08:09;;;;;;;7.97;4.28;;;;;;;;;;4965280;28;20553;-82
2022/04/11 11:10:39;;;;;;;7.80;3.90;;;;;;;;;;4971531;28;20102;-82
2022/04/11 11:13:25;;;;;;;8.60;4.10;;;;;;;;;;4955268;28;20596;-82
2022/04/11 11:15:53;;;;;;;9.02;3.75;;;;;;;;;;4968534;28;20216;-82
2022/04/11 11:18:19;;;;;;;7.40;4.05;;;;;;;;;;4955215;28;20059;-81
2022/04/11 11:20:52;;;;;;;17.27;4.10;;;;;;;;;;4951910;28;20061;-82
2022/04/11 11:23:31;;;;;;;7.93;3.72;;;;;;;;;;4973933;28;20135;-81
2022/04/11 11:26:26;;;;;;;8.68;4.03;;;;;;;;;;4972710;28;20059;-82
2022/04/11 11:28:52;;;;;;;6.43;4.18;;;;;;;;;;4970514;28;20581;-82
2022/04/11 11:31:19;;;;;;;6.78;3.92;;;;;;;;;;4969491;28;20059;-81
2022/04/11 11:33:50;;;;;;;8.10;4.50;;;;;;;;;;4951632;28;20085;-82
2022/04/11 11:36:16;;;;;;;7.53;3.78;;;;;;;;;;4953986;28;20119;-82
2022/04/11 11:38:42;;;;;;;9.80;3.80;;;;;;;;;;4974323;28;20088;-82
2022/04/11 11:41:09;;;;;;;8.02;4.50;;;;;;;;;;4954822;28;20095;-81
2022/04/11 11:43:36;;;;;;;11.23;3.97;;;;;;;;;;4964739;28;20055;-80
2022/04/11 11:46:03;;;;;;;6.95;3.97;;;;;;;;;;4954854;28;20142;-81
2022/04/11 11:48:31;;;;;;;10.45;4.03;;;;;;;;;;4972585;28;20063;-80
2022/04/11 11:50:58;;;;;;;8.40;4.03;;;;;;;;;;4954989;28;20086;-82
2022/04/11 11:53:25;;;;;;;6.72;3.92;;;;;;;;;;4955699;28;20087;-81
2022/04/11 11:55:59;;;;;;;9.32;4.47;;;;;;;;;;4970824;28;20625;-80
2022/04/11 11:58:35;;;;;;;7.95;4.10;;;;;;;;;;4977988;28;20158;-80
2022/04/11 12:01:02;;;;;;;7.43;4.25;;;;;;;;;;4955063;28;20051;-81
2022/04/11 12:06:22;;;;;;;9.55;4.57;;;;;;;;;;4977603;28;20071;-79
2022/04/11 12:08:55;;;;;;;9.10;4.50;;;;;;;;;;4957272;28;20043;-80
2022/04/11 12:11:25;;;;;;;8.90;4.30;;;;;;;;;;4957624;28;20051;-80
2022/04/11 12:14:21;;;;;;;8.02;3.95;;;;;;;;;;4970619;28;20052;-80
2022/04/11 12:16:55;;;;;;;9.88;4.38;;;;;;;;;;4956483;28;20079;-80
2022/04/11 12:19:34;;;;;;;7.75;3.95;;;;;;;;;;4972258;28;20953;-80
2022/04/11 12:22:11;;;;;;;9.23;4.47;;;;;;;;;;4970569;28;20909;-79
2022/04/11 12:24:37;;;;;;;6.88;4.00;;;;;;;;;;4949557;28;20686;-80
2022/04/11 12:27:04;;;;;;;9.27;3.90;;;;;;;;;;4982540;28;20044;-80
2022/04/11 12:29:37;;;;;;;10.05;4.07;;;;;;;;;;4959115;28;20578;-79
2022/04/11 12:32:09;;;;;;;7.20;3.97;;;;;;;;;;4974168;28;20090;-79
2022/04/11 12:34:39;;;;;;;8.10;3.65;;;;;;;;;;4951985;28;20074;-79
2022/04/11 12:37:07;;;;;;;9.50;4.45;;;;;;;;;;4954716;28;20087;-80
2022/04/11 12:39:49;;;;;;;8.38;3.92;;;;;;;;;;4953391;28;20059;-80
2022/04/11 12:42:19;;;;;;;7.32;4.30;;;;;;;;;;4959355;28;20114;-79
2022/04/11 12:44:46;;;;;;;6.50;3.78;;;;;;;;;;4970979;28;20086;-79
2022/04/11 12:47:19;;;;;;;7.90;3.97;;;;;;;;;;4954894;28;20059;-79
2022/04/11 12:49:47;;;;;;;6.78;3.97;;;;;;;;;;4967374;28;20530;-79
2022/04/11 12:52:14;;;;;;;8.00;4.30;;;;;;;;;;4975441;28;20197;-80
2022/04/11 12:54:43;;;;;;;9.30;4.13;;;;;;;;;;4957269;28;20051;-79
2022/04/11 12:57:10;;;;;;;7.97;3.80;;;;;;;;;;4957935;28;20055;-79
2022/04/11 12:59:38;;;;;;;7.35;4.30;;;;;;;;;;4957108;28;20064;-80
2022/04/11 13:02:06;;;;;;;8.25;4.22;;;;;;;;;;4956508;28;20079;-81
2022/04/11 13:04:33;;;;;;;7.85;3.97;;;;;;;;;;4972085;28;20961;-80
2022/04/11 13:07:00;;;;;;;9.50;4.60;;;;;;;;;;4974085;28;20055;-79
2022/04/11 13:09:26;;;;;;;7.88;4.25;;;;;;;;;;4944113;28;20138;-80
2022/04/11 13:11:53;;;;;;;9.25;4.32;;;;;;;;;;4964606;28;20051;-80
2022/04/11 13:14:35;;;;;;;7.80;4.32;;;;;;;;;;4958657;28;20090;-80
2022/04/11 13:19:47;;;;;;;8.10;4.43;;;;;;;;;;4954253;28;20607;-79
2022/04/11 13:22:14;;;;;;;9.23;3.90;;;;;;;;;;4942052;28;20111;-80
2022/04/11 13:24:40;;;;;;;7.90;4.10;;;;;;;;;;4972527;28;20036;-80
2022/04/11 13:27:06;;;;;;;7.45;4.25;;;;;;;;;;4955750;28;20392;-80
2022/04/11 13:29:33;;;;;;;7.43;3.95;;;;;;;;;;4973487;28;20058;-80
2022/04/11 13:31:59;;;;;;;8.45;4.28;;;;;;;;;;4971671;28;20055;-79
2022/04/11 13:34:26;;;;;;;9.65;4.55;;;;;;;;;;4967542;28;20051;-79
2022/04/11 13:36:53;;;;;;;8.15;4.55;;;;;;;;;;4947840;28;20139;-79
2022/04/11 13:39:39;;;;;;;9.35;4.80;;;;;;;;;;4965369;28;20061;-78
2022/04/11 13:42:06;;;;;;;7.95;4.40;;;;;;;;;;4968014;28;20098;-75
2022/04/11 13:44:32;;;;;;;8.38;4.95;;;;;;;;;;4969440;28;20189;-79
2022/04/11 13:46:58;;;;;;;8.15;4.82;;;;;;;;;;4968773;28;20114;-80
2022/04/11 13:49:25;;;;;;;9.38;4.88;;;;;;;;;;4974086;28;20625;-79
2022/04/11 13:51:51;;;;;;;8.70;5.43;;;;;;;;;;4974896;28;20098;-80
2022/04/11 13:54:23;;;;;;;8.65;5.18;;;;;;;;;;4968374;28;20059;-79
2022/04/11 13:56:50;;;;;;;9.45;5.22;;;;;;;;;;4946122;28;20816;-80
2022/04/11 13:59:20;;;;;;;8.25;5.18;;;;;;;;;;4957233;28;20099;-80
2022/04/11 14:01:47;;;;;;;8.45;5.07;;;;;;;;;;4952979;28;20157;-79
2022/04/11 14:04:14;;;;;;;11.88;4.85;;;;;;;;;;4974547;28;20114;-79
2022/04/11 14:06:41;;;;;;;10.55;5.25;;;;;;;;;;4956454;28;20052;-79
2022/04/11 14:09:09;;;;;;;12.32;5.68;;;;;;;;;;4974710;28;20138;-79
2022/04/11 14:11:56;;;;;;;14.23;5.80;;;;;;;;;;4966028;28;20031;-79
2022/04/11 14:14:23;;;;;;;8.80;4.90;;;;;;;;;;4955492;28;20115;-80
2022/04/11 14:16:49;;;;;;;8.85;4.78;;;;;;;;;;4962410;28;20207;-79
2022/04/11 14:19:15;;;;;;;11.57;5.25;;;;;;;;;;4961791;28;20110;-79
2022/04/11 14:21:42;;;;;;;10.40;5.30;;;;;;;;;;4957524;28;20487;-81
2022/04/11 14:24:08;;;;;;;8.18;5.30;;;;;;;;;;4964617;28;20209;-80
2022/04/11 14:26:34;;;;;;;8.40;4.53;;;;;;;;;;4976671;28;20055;-81
2022/04/11 14:29:01;;;;;;;8.35;4.78;;;;;;;;;;4977269;28;20111;-84
2022/04/11 14:31:27;;;;;;;8.52;4.65;;;;;;;;;;4958324;28;20209;-80
2022/04/11 14:33:54;;;;;;;11.43;4.80;;;;;;;;;;4959063;28;20059;-79
2022/04/11 14:36:20;;;;;;;8.82;4.97;;;;;;;;;;4974568;28;20091;-80
2022/04/11 14:39:07;;;;;;;9.63;4.60;;;;;;;;;;4960903;28;20032;-79
2022/04/11 14:41:38;;;;;;;10.07;4.82;;;;;;;;;;4948866;28;20441;-80
2022/04/11 14:44:05;;;;;;;8.85;4.35;;;;;;;;;;4952727;28;20051;-80
2022/04/11 14:46:32;;;;;;;8.95;4.55;;;;;;;;;;4963387;28;20071;-80